createdAt,value
2023-02-11T11:06:32.414Z,54.24
2023-02-11T11:11:51.780Z,51.78
2023-02-11T11:16:54.616Z,51.26
2023-02-11T11:21:57.229Z,51.79
2023-02-11T11:27:01.797Z,51.30
2023-02-11T11:32:33.643Z,52.18
2023-02-11T11:37:36.999Z,50.27
2023-02-11T11:42:40.113Z,49.62
2023-02-11T11:47:44.314Z,49.59
2023-02-11T11:53:04.602Z,49.26
2023-02-11T11:58:14.382Z,50.81
2023-02-11T12:03:38.457Z,50.31
2023-02-11T12:08:40.059Z,50.62
2023-02-11T12:14:02.990Z,49.23
2023-02-11T12:19:29.000Z,48.95
2023-02-11T12:24:33.240Z,47.92
2023-02-11T12:30:01.433Z,49.78
2023-02-11T12:35:28.244Z,48.05
2023-02-11T12:40:55.241Z,48.88
2023-02-11T12:46:24.769Z,49.91
2023-02-11T12:51:56.606Z,48.99
2023-02-11T12:57:08.452Z,48.40
2023-02-11T13:02:24.592Z,48.79
2023-02-11T13:07:39.388Z,48.95
2023-02-11T13:13:04.503Z,49.91
2023-02-11T13:18:31.920Z,48.77
2023-02-11T13:23:36.238Z,47.77
2023-02-11T13:28:41.463Z,48.29
2023-02-11T13:33:44.403Z,48.44
2023-02-11T13:38:59.828Z,47.83
2023-02-11T13:44:23.653Z,48.75
2023-02-11T13:49:28.028Z,47.71
2023-02-11T13:54:34.457Z,46.89
2023-02-11T13:59:36.013Z,47.40
2023-02-11T14:04:57.346Z,48.10
2023-02-11T14:09:59.361Z,48.39
2023-02-11T14:15:22.684Z,46.63
2023-02-11T14:20:42.028Z,47.67
2023-02-11T14:25:50.708Z,47.69
2023-02-11T14:31:07.817Z,49.04
2023-02-11T14:36:18.379Z,48.06
2023-02-11T14:41:24.500Z,48.10
2023-02-11T14:46:29.937Z,49.50
2023-02-11T14:51:36.441Z,48.34
2023-02-11T14:56:38.288Z,49.08
2023-02-11T15:01:48.968Z,49.11
2023-02-11T15:06:51.285Z,48.24
2023-02-11T15:11:54.295Z,49.49
2023-02-11T15:17:03.729Z,49.48
2023-02-11T15:22:13.911Z,49.04
2023-02-11T15:27:16.380Z,47.71
2023-02-11T15:32:19.368Z,48.84
2023-02-11T15:37:22.855Z,48.79
2023-02-11T15:42:27.103Z,47.50
2023-02-11T15:47:29.110Z,46.37
2023-02-11T15:52:31.710Z,45.58
2023-02-11T15:57:34.140Z,47.12
2023-02-11T16:02:38.701Z,47.80
2023-02-11T16:07:44.714Z,47.12
2023-02-11T16:13:04.596Z,45.88
2023-02-11T16:18:38.843Z,45.72
2023-02-11T16:23:44.789Z,45.70
2023-02-11T16:28:46.605Z,44.64
2023-02-11T16:33:48.283Z,45.54
2023-02-11T16:38:52.755Z,45.13
2023-02-11T16:43:58.318Z,45.83
2023-02-11T16:49:26.118Z,44.80
2023-02-11T16:54:29.823Z,46.82
2023-02-11T16:59:31.508Z,47.58
2023-02-11T17:04:34.450Z,48.36
2023-02-11T17:09:36.133Z,48.45
2023-02-11T17:14:37.740Z,47.90
2023-02-11T17:19:40.182Z,46.65
2023-02-11T17:24:41.859Z,47.83
2023-02-11T17:29:43.758Z,46.10
2023-02-11T17:34:45.506Z,47.24
2023-02-11T17:39:49.542Z,46.90
2023-02-11T17:44:51.163Z,46.61
2023-02-11T17:49:52.821Z,47.10
2023-02-11T17:54:55.336Z,46.10
2023-02-11T17:59:57.287Z,47.77
2023-02-11T18:04:59.009Z,47.61
2023-02-11T18:10:00.841Z,49.92
2023-02-11T18:15:02.709Z,47.80
2023-02-11T18:20:05.112Z,48.22
2023-02-11T18:25:07.876Z,48.58
2023-02-11T18:30:15.208Z,48.37
2023-02-11T18:35:17.066Z,48.08
2023-02-11T18:40:18.982Z,50.00
2023-02-11T18:45:20.783Z,49.00
2023-02-11T18:50:22.703Z,48.12
2023-02-11T18:55:25.947Z,48.08
2023-02-11T19:00:30.262Z,47.78
2023-02-11T19:05:33.546Z,45.83
2023-02-11T19:10:35.522Z,48.35
2023-02-11T19:15:44.530Z,49.38
2023-02-11T19:20:46.614Z,49.18
2023-02-11T19:25:48.812Z,48.10
2023-02-11T19:30:50.561Z,48.41
2023-02-11T19:35:52.539Z,48.57
2023-02-11T19:40:57.720Z,47.54
2023-02-11T19:46:02.112Z,48.81
2023-02-11T19:51:13.046Z,48.68
2023-02-11T19:56:15.809Z,49.17
2023-02-11T20:01:19.910Z,50.40
2023-02-11T20:06:24.684Z,49.84
2023-02-11T20:11:28.926Z,50.01
2023-02-11T20:16:46.778Z,49.35
2023-02-11T20:21:52.836Z,51.32
2023-02-11T20:26:56.058Z,50.90
2023-02-11T20:31:58.166Z,51.19
2023-02-11T20:37:00.058Z,51.77
2023-02-11T20:42:01.798Z,51.35
2023-02-11T20:47:03.519Z,51.29
2023-02-11T20:52:05.210Z,52.41
2023-02-11T20:57:07.482Z,52.96
2023-02-11T21:02:10.281Z,54.48
2023-02-11T21:07:12.052Z,54.37
2023-02-11T21:12:13.831Z,54.36
2023-02-11T21:17:15.555Z,54.11
2023-02-11T21:22:17.276Z,54.09
2023-02-11T21:27:19.121Z,53.79
2023-02-11T21:32:20.801Z,52.59
2023-02-11T21:37:23.274Z,52.71
2023-02-11T21:42:24.979Z,53.30
2023-02-11T21:47:26.636Z,50.92
2023-02-11T21:52:28.260Z,52.99
2023-02-11T21:57:31.024Z,52.35
2023-02-11T22:02:32.680Z,51.58
2023-02-11T22:07:36.429Z,49.60
2023-02-11T22:12:38.026Z,53.75
2023-02-11T22:17:39.850Z,48.37
2023-02-11T22:22:41.485Z,48.17
2023-02-11T22:27:43.506Z,47.70
2023-02-11T22:32:45.266Z,48.66
2023-02-11T22:37:47.029Z,48.90
2023-02-11T22:42:48.876Z,48.74
2023-02-11T22:47:50.522Z,49.71
2023-02-11T22:52:52.268Z,49.19
2023-02-11T22:57:53.914Z,49.71
2023-02-11T23:02:56.201Z,49.84
2023-02-11T23:07:58.004Z,48.59
2023-02-11T23:12:59.734Z,50.73
2023-02-11T23:18:01.523Z,51.48
2023-02-11T23:23:03.757Z,50.78
2023-02-11T23:28:05.569Z,48.93
2023-02-11T23:33:07.303Z,53.45
2023-02-11T23:38:09.108Z,52.66
2023-02-11T23:43:10.788Z,50.37
2023-02-11T23:48:12.468Z,48.10
2023-02-11T23:53:14.278Z,48.89
2023-02-11T23:58:16.803Z,49.90
